KSQIKFLD

Guest
Details From KSQI - WHITESIDE CO JOS H BITTORF
To KFLD - Fond Du Lac Co
Flight Number -
Tags generated
Created
Modified
Stats Distance 133 nm / 246 km
Max Altitude 15,300 ft / 4,663 m
Waypoints 3
Social Downloads 1
Likes 0
Share VATSIM

Download

Looking for another format? Having issues loading an existing format? Contact us
Advertisement - Login to hide

Notes

Basic altitude profile: - Ascent Rate: 2500ft/min - Ascent Speed: 120kts - Cruise Altitude: 15000ft - Cruise Speed: 210kts - Descent Rate: 1500ft/min - Descent Speed: 120kts Options: - Use NATs: yes - Use PACOTS: yes - Use low airways: yes - Use high airways: yes

Route

KSQI TAVNE KFLD

ID Type Via Altitude Latitude Longitude Leg Dist Tot Dist Heading (true) Name
O KSQI APT - 0 ft / 0 m 41.74305˚ -89.67721˚ - 0 nm - WHITESIDE CO JOS H BITTORF
TAVNE FIX - 15,300 ft / 4,663 m 42.68600˚ -89.15600˚ 61 nm 61 nm 22° / 22° -
O KFLD APT - 0 ft / 0 m 43.77123˚ -88.48916˚ 71 nm 132 nm 24° / 24° Fond Du Lac Co

Altitude Profile

Advertisement - Login to hide

KSQI

Details ICAO KSQI
Name WHITESIDE CO JOS H BITTORF
Region United States
Timezone America/Chicago (UTC-6.0)
Stats Elevation 647 ft / 197 m (AMSL)
Location 41.743054° -89.677215°
Runways 2
Magnetic Variation 2.296° W

METAR

KSQI 131256Z AUTO 17008KT 110V210 10SM BKN080 OVC120 M02/M06 A2950 RMK AO2 PRESFR SLP011 T10171061 FZRANO

Decode

TAF

Not found

Departure Runways

ID Width Length Bearing (true) Bearing (mag) Surface Threshold Offset Overrun Length
07 150 ft / 46 m 6,487 ft / 1,977 m 70.07° 72.37° Asphalt 0 ft / 0 m 0 ft / 0 m
18 100 ft / 30 m 3,905 ft / 1,190 m 180.12° 182.42° Asphalt 0 ft / 0 m 0 ft / 0 m
25 150 ft / 46 m 6,487 ft / 1,977 m 250.08° 252.38° Asphalt 0 ft / 0 m 0 ft / 0 m
36 100 ft / 30 m 3,905 ft / 1,190 m 0.12° 2.42° Asphalt 0 ft / 0 m 0 ft / 0 m

KFLD

Details ICAO KFLD (FLD)
Name Fond Du Lac Co
Region United States
Timezone America/Chicago (UTC-6.0)
Stats Elevation 808 ft / 246 m (AMSL)
Location 43.771234° -88.489155°
Runways 2
Magnetic Variation 3.554° W

METAR

KFLD 131253Z AUTO 15013KT 10SM FEW055 BKN090 OVC110 M06/M09 A2946 RMK AO2 SNE25 PRESFR SLP990 P0000 T10561089

Decode

TAF

Not found

Destination Runways

ID Width Length Bearing (true) Bearing (mag) Surface Threshold Offset Overrun Length
09 75 ft / 23 m 3,593 ft / 1,095 m 91.66° 95.21° Asphalt 0 ft / 0 m 0 ft / 0 m
18 100 ft / 30 m 5,948 ft / 1,813 m 180.05° 183.60° Asphalt 0 ft / 0 m 0 ft / 0 m
27 75 ft / 23 m 3,593 ft / 1,095 m 271.67° 275.22° Asphalt 0 ft / 0 m 0 ft / 0 m
36 100 ft / 30 m 5,948 ft / 1,813 m 0.05° 3.60° Asphalt 0 ft / 0 m 0 ft / 0 m

Approach Navaids

Runway Type Ident Frequency Range Bearing (true) Bearing (mag) Slope Elevation
36 Localiser IFLD 108.30 MHz 18 nm / 33 km 358.14° 1.69° - 782 ft / 238 m (AMSL)